sensor_id;sensor_type;location;lat;lon;timestamp;P1;durP1;ratioP1;P2;durP2;ratioP2
48777;SDS011;34578;0.000;0.000;2023-02-03T00:04:00;10.13;;;1.60;;
48777;SDS011;34578;0.000;0.000;2023-02-03T00:09:00;4.43;;;1.07;;
48777;SDS011;34578;0.000;0.000;2023-02-03T00:14:03;4.60;;;1.00;;
48777;SDS011;34578;0.000;0.000;2023-02-03T00:19:04;4.20;;;1.73;;
48777;SDS011;34578;0.000;0.000;2023-02-03T00:24:05;4.83;;;1.20;;
48777;SDS011;34578;0.000;0.000;2023-02-03T00:29:05;3.85;;;0.93;;
48777;SDS011;34578;0.000;0.000;2023-02-03T00:34:05;5.77;;;1.10;;
48777;SDS011;34578;0.000;0.000;2023-02-03T00:39:06;4.45;;;1.10;;
48777;SDS011;34578;0.000;0.000;2023-02-03T00:44:06;2.80;;;0.70;;
48777;SDS011;34578;0.000;0.000;2023-02-03T00:49:08;4.55;;;1.20;;
48777;SDS011;34578;0.000;0.000;2023-02-03T00:54:08;5.03;;;1.00;;
48777;SDS011;34578;0.000;0.000;2023-02-03T00:59:09;4.70;;;1.00;;
48777;SDS011;34578;0.000;0.000;2023-02-03T01:04:09;3.73;;;1.00;;
48777;SDS011;34578;0.000;0.000;2023-02-03T01:09:10;1.37;;;0.90;;
48777;SDS011;34578;0.000;0.000;2023-02-03T01:14:10;2.23;;;0.90;;
48777;SDS011;34578;0.000;0.000;2023-02-03T01:19:10;3.10;;;0.93;;
48777;SDS011;34578;0.000;0.000;2023-02-03T01:24:12;3.72;;;1.00;;
48777;SDS011;34578;0.000;0.000;2023-02-03T01:29:14;4.57;;;1.42;;
48777;SDS011;34578;0.000;0.000;2023-02-03T01:34:14;3.75;;;1.35;;
48777;SDS011;34578;0.000;0.000;2023-02-03T01:39:17;1.15;;;0.50;;
48777;SDS011;34578;0.000;0.000;2023-02-03T01:49:38;5.13;;;0.85;;
48777;SDS011;34578;0.000;0.000;2023-02-03T01:54:42;4.35;;;0.90;;
48777;SDS011;34578;0.000;0.000;2023-02-03T01:59:44;1.23;;;0.68;;
48777;SDS011;34578;0.000;0.000;2023-02-03T02:10:09;2.72;;;0.90;;
48777;SDS011;34578;0.000;0.000;2023-02-03T02:15:10;2.53;;;1.35;;
48777;SDS011;34578;0.000;0.000;2023-02-03T02:31:30;3.33;;;0.70;;
48777;SDS011;34578;0.000;0.000;2023-02-03T02:36:39;1.33;;;0.73;;
48777;SDS011;34578;0.000;0.000;2023-02-03T02:41:54;2.42;;;0.68;;
48777;SDS011;34578;0.000;0.000;2023-02-03T02:46:58;3.25;;;0.93;;
48777;SDS011;34578;0.000;0.000;2023-02-03T02:52:06;1.88;;;0.52;;
48777;SDS011;34578;0.000;0.000;2023-02-03T02:57:09;4.47;;;0.90;;
48777;SDS011;34578;0.000;0.000;2023-02-03T03:02:12;2.35;;;0.90;;
48777;SDS011;34578;0.000;0.000;2023-02-03T03:07:15;1.23;;;0.77;;
48777;SDS011;34578;0.000;0.000;2023-02-03T03:12:25;2.30;;;0.65;;
48777;SDS011;34578;0.000;0.000;2023-02-03T03:17:31;1.42;;;0.50;;
48777;SDS011;34578;0.000;0.000;2023-02-03T03:22:35;2.85;;;0.90;;
48777;SDS011;34578;0.000;0.000;2023-02-03T03:27:48;2.28;;;0.73;;
48777;SDS011;34578;0.000;0.000;2023-02-03T03:32:53;1.83;;;0.65;;
48777;SDS011;34578;0.000;0.000;2023-02-03T03:37:55;1.63;;;0.80;;
48777;SDS011;34578;0.000;0.000;2023-02-03T03:43:19;1.35;;;0.60;;
48777;SDS011;34578;0.000;0.000;2023-02-03T03:48:31;2.75;;;0.77;;
48777;SDS011;34578;0.000;0.000;2023-02-03T03:53:37;1.80;;;0.60;;
48777;SDS011;34578;0.000;0.000;2023-02-03T03:58:41;2.70;;;1.35;;
48777;SDS011;34578;0.000;0.000;2023-02-03T04:03:45;3.20;;;1.40;;
48777;SDS011;34578;0.000;0.000;2023-02-03T04:08:48;4.07;;;0.50;;
48777;SDS011;34578;0.000;0.000;2023-02-03T04:13:48;1.13;;;0.50;;
48777;SDS011;34578;0.000;0.000;2023-02-03T04:18:48;2.20;;;0.97;;
48777;SDS011;34578;0.000;0.000;2023-02-03T04:23:49;2.90;;;0.50;;
48777;SDS011;34578;0.000;0.000;2023-02-03T04:28:51;2.38;;;0.55;;
48777;SDS011;34578;0.000;0.000;2023-02-03T04:33:51;1.00;;;0.50;;
48777;SDS011;34578;0.000;0.000;2023-02-03T04:38:51;1.87;;;1.07;;
48777;SDS011;34578;0.000;0.000;2023-02-03T04:43:52;1.33;;;0.53;;
48777;SDS011;34578;0.000;0.000;2023-02-03T04:48:52;2.10;;;0.53;;
48777;SDS011;34578;0.000;0.000;2023-02-03T04:53:52;1.73;;;0.70;;
48777;SDS011;34578;0.000;0.000;2023-02-03T04:58:53;1.00;;;0.60;;
48777;SDS011;34578;0.000;0.000;2023-02-03T05:03:53;0.90;;;0.37;;
48777;SDS011;34578;0.000;0.000;2023-02-03T05:08:54;2.17;;;0.50;;
48777;SDS011;34578;0.000;0.000;2023-02-03T05:13:54;1.98;;;0.50;;
48777;SDS011;34578;0.000;0.000;2023-02-03T05:18:55;1.50;;;0.70;;
48777;SDS011;34578;0.000;0.000;2023-02-03T05:23:55;1.40;;;0.50;;
48777;SDS011;34578;0.000;0.000;2023-02-03T05:28:55;4.87;;;0.40;;
48777;SDS011;34578;0.000;0.000;2023-02-03T05:33:56;1.47;;;0.53;;
48777;SDS011;34578;0.000;0.000;2023-02-03T05:38:57;2.38;;;0.60;;
48777;SDS011;34578;0.000;0.000;2023-02-03T05:43:57;4.85;;;0.60;;
48777;SDS011;34578;0.000;0.000;2023-02-03T05:48:58;3.83;;;0.93;;
48777;SDS011;34578;0.000;0.000;2023-02-03T05:53:58;2.97;;;0.97;;
48777;SDS011;34578;0.000;0.000;2023-02-03T05:58:58;10.33;;;2.90;;
48777;SDS011;34578;0.000;0.000;2023-02-03T06:03:59;9.03;;;1.77;;
48777;SDS011;34578;0.000;0.000;2023-02-03T06:09:01;7.95;;;1.42;;
48777;SDS011;34578;0.000;0.000;2023-02-03T06:14:03;8.85;;;1.23;;
48777;SDS011;34578;0.000;0.000;2023-02-03T06:19:03;7.73;;;0.93;;
48777;SDS011;34578;0.000;0.000;2023-02-03T06:24:04;7.00;;;1.15;;
48777;SDS011;34578;0.000;0.000;2023-02-03T06:29:07;4.95;;;1.35;;
48777;SDS011;34578;0.000;0.000;2023-02-03T06:34:07;6.50;;;1.50;;
48777;SDS011;34578;0.000;0.000;2023-02-03T06:39:08;5.20;;;1.20;;
48777;SDS011;34578;0.000;0.000;2023-02-03T06:44:09;9.40;;;1.30;;
48777;SDS011;34578;0.000;0.000;2023-02-03T06:49:09;12.40;;;1.80;;
48777;SDS011;34578;0.000;0.000;2023-02-03T06:54:10;7.63;;;1.43;;
48777;SDS011;34578;0.000;0.000;2023-02-03T06:59:11;11.02;;;2.55;;
48777;SDS011;34578;0.000;0.000;2023-02-03T07:04:12;10.30;;;1.77;;
48777;SDS011;34578;0.000;0.000;2023-02-03T07:09:12;6.40;;;1.60;;
48777;SDS011;34578;0.000;0.000;2023-02-03T07:14:12;7.75;;;2.45;;
48777;SDS011;34578;0.000;0.000;2023-02-03T07:19:13;13.02;;;2.58;;
48777;SDS011;34578;0.000;0.000;2023-02-03T07:24:13;7.80;;;2.50;;
48777;SDS011;34578;0.000;0.000;2023-02-03T07:29:14;11.65;;;2.38;;
48777;SDS011;34578;0.000;0.000;2023-02-03T07:34:14;7.95;;;1.70;;
48777;SDS011;34578;0.000;0.000;2023-02-03T07:39:15;6.15;;;2.05;;
48777;SDS011;34578;0.000;0.000;2023-02-03T07:44:18;5.93;;;1.73;;
48777;SDS011;34578;0.000;0.000;2023-02-03T07:49:18;6.83;;;1.53;;
48777;SDS011;34578;0.000;0.000;2023-02-03T07:54:18;9.33;;;2.87;;
48777;SDS011;34578;0.000;0.000;2023-02-03T07:59:19;9.38;;;1.98;;
48777;SDS011;34578;0.000;0.000;2023-02-03T08:04:19;5.88;;;1.80;;
48777;SDS011;34578;0.000;0.000;2023-02-03T08:09:20;3.27;;;1.23;;
48777;SDS011;34578;0.000;0.000;2023-02-03T08:14:20;7.90;;;1.43;;
48777;SDS011;34578;0.000;0.000;2023-02-03T08:19:20;9.33;;;2.83;;
48777;SDS011;34578;0.000;0.000;2023-02-03T08:24:21;7.53;;;1.47;;
48777;SDS011;34578;0.000;0.000;2023-02-03T08:29:21;4.00;;;1.90;;
48777;SDS011;34578;0.000;0.000;2023-02-03T08:34:22;3.43;;;1.00;;
48777;SDS011;34578;0.000;0.000;2023-02-03T08:39:22;3.53;;;1.60;;
48777;SDS011;34578;0.000;0.000;2023-02-03T08:44:22;4.80;;;1.38;;
48777;SDS011;34578;0.000;0.000;2023-02-03T08:49:24;3.43;;;1.00;;
48777;SDS011;34578;0.000;0.000;2023-02-03T08:54:26;3.25;;;1.08;;
48777;SDS011;34578;0.000;0.000;2023-02-03T08:59:26;3.83;;;0.90;;
48777;SDS011;34578;0.000;0.000;2023-02-03T09:04:28;5.72;;;1.40;;
48777;SDS011;34578;0.000;0.000;2023-02-03T09:09:29;5.07;;;1.25;;
48777;SDS011;34578;0.000;0.000;2023-02-03T09:14:30;2.40;;;1.17;;
48777;SDS011;34578;0.000;0.000;2023-02-03T09:19:32;3.97;;;1.25;;
48777;SDS011;34578;0.000;0.000;2023-02-03T09:24:32;3.72;;;1.33;;
48777;SDS011;34578;0.000;0.000;2023-02-03T09:29:33;5.17;;;1.47;;
48777;SDS011;34578;0.000;0.000;2023-02-03T09:34:33;5.87;;;2.10;;
48777;SDS011;34578;0.000;0.000;2023-02-03T09:39:33;5.93;;;2.03;;
48777;SDS011;34578;0.000;0.000;2023-02-03T09:44:40;7.00;;;1.97;;
48777;SDS011;34578;0.000;0.000;2023-02-03T09:49:52;13.57;;;2.00;;
48777;SDS011;34578;0.000;0.000;2023-02-03T10:00:00;9.93;;;1.80;;
48777;SDS011;34578;0.000;0.000;2023-02-03T10:15:42;4.47;;;1.10;;
48777;SDS011;34578;0.000;0.000;2023-02-03T10:21:01;4.70;;;1.10;;
48777;SDS011;34578;0.000;0.000;2023-02-03T10:26:12;4.38;;;1.83;;
48777;SDS011;34578;0.000;0.000;2023-02-03T10:31:18;5.40;;;1.40;;
48777;SDS011;34578;0.000;0.000;2023-02-03T10:36:22;4.13;;;1.10;;
48777;SDS011;34578;0.000;0.000;2023-02-03T10:41:48;2.90;;;0.93;;
48777;SDS011;34578;0.000;0.000;2023-02-03T10:46:49;5.75;;;1.20;;
48777;SDS011;34578;0.000;0.000;2023-02-03T10:51:50;6.10;;;1.60;;
48777;SDS011;34578;0.000;0.000;2023-02-03T10:56:52;6.35;;;2.60;;
48777;SDS011;34578;0.000;0.000;2023-02-03T11:01:54;6.63;;;1.60;;
48777;SDS011;34578;0.000;0.000;2023-02-03T11:06:58;4.80;;;1.50;;
48777;SDS011;34578;0.000;0.000;2023-02-03T11:17:15;8.48;;;2.97;;
48777;SDS011;34578;0.000;0.000;2023-02-03T11:22:27;5.32;;;1.98;;
48777;SDS011;34578;0.000;0.000;2023-02-03T11:27:31;5.28;;;2.08;;
48777;SDS011;34578;0.000;0.000;2023-02-03T11:32:33;3.72;;;2.08;;
48777;SDS011;34578;0.000;0.000;2023-02-03T11:37:42;4.47;;;1.80;;
48777;SDS011;34578;0.000;0.000;2023-02-03T11:47:58;5.63;;;1.35;;
48777;SDS011;34578;0.000;0.000;2023-02-03T12:03:59;3.03;;;1.10;;
48777;SDS011;34578;0.000;0.000;2023-02-03T12:09:18;5.30;;;1.15;;
48777;SDS011;34578;0.000;0.000;2023-02-03T12:30:25;9.88;;;1.40;;
48777;SDS011;34578;0.000;0.000;2023-02-03T12:45:55;10.63;;;2.40;;
48777;SDS011;34578;0.000;0.000;2023-02-03T12:51:02;13.95;;;3.03;;
48777;SDS011;34578;0.000;0.000;2023-02-03T12:56:13;16.60;;;3.90;;
48777;SDS011;34578;0.000;0.000;2023-02-03T13:01:22;12.50;;;2.50;;
48777;SDS011;34578;0.000;0.000;2023-02-03T13:11:39;12.63;;;2.85;;
48777;SDS011;34578;0.000;0.000;2023-02-03T13:16:50;20.70;;;3.97;;
48777;SDS011;34578;0.000;0.000;2023-02-03T13:21:54;8.80;;;2.67;;
48777;SDS011;34578;0.000;0.000;2023-02-03T13:32:22;18.30;;;4.10;;
48777;SDS011;34578;0.000;0.000;2023-02-03T13:42:41;12.52;;;3.45;;
48777;SDS011;34578;0.000;0.000;2023-02-03T13:47:46;13.60;;;3.75;;
48777;SDS011;34578;0.000;0.000;2023-02-03T13:52:54;14.55;;;3.95;;
48777;SDS011;34578;0.000;0.000;2023-02-03T13:57:58;12.05;;;3.08;;
48777;SDS011;34578;0.000;0.000;2023-02-03T14:02:59;7.28;;;2.50;;
48777;SDS011;34578;0.000;0.000;2023-02-03T14:08:14;9.47;;;3.37;;
48777;SDS011;34578;0.000;0.000;2023-02-03T14:13:29;9.75;;;2.60;;
48777;SDS011;34578;0.000;0.000;2023-02-03T14:18:30;10.20;;;2.85;;
48777;SDS011;34578;0.000;0.000;2023-02-03T14:23:44;13.70;;;2.40;;
48777;SDS011;34578;0.000;0.000;2023-02-03T14:28:48;8.23;;;2.35;;
48777;SDS011;34578;0.000;0.000;2023-02-03T14:33:50;6.88;;;2.65;;
48777;SDS011;34578;0.000;0.000;2023-02-03T14:38:53;8.23;;;1.88;;
48777;SDS011;34578;0.000;0.000;2023-02-03T14:49:34;9.50;;;2.20;;
48777;SDS011;34578;0.000;0.000;2023-02-03T14:54:49;5.50;;;1.70;;
48777;SDS011;34578;0.000;0.000;2023-02-03T14:59:58;4.85;;;1.20;;
48777;SDS011;34578;0.000;0.000;2023-02-03T15:10:28;5.82;;;1.35;;
48777;SDS011;34578;0.000;0.000;2023-02-03T15:15:39;6.45;;;1.80;;
48777;SDS011;34578;0.000;0.000;2023-02-03T15:20:44;7.43;;;2.88;;
48777;SDS011;34578;0.000;0.000;2023-02-03T15:25:45;9.13;;;2.55;;
48777;SDS011;34578;0.000;0.000;2023-02-03T15:30:57;10.18;;;2.55;;
48777;SDS011;34578;0.000;0.000;2023-02-03T15:36:11;7.65;;;3.25;;
48777;SDS011;34578;0.000;0.000;2023-02-03T15:41:23;10.52;;;2.47;;
48777;SDS011;34578;0.000;0.000;2023-02-03T15:46:34;7.95;;;2.65;;
48777;SDS011;34578;0.000;0.000;2023-02-03T15:51:48;7.65;;;2.30;;
48777;SDS011;34578;0.000;0.000;2023-02-03T15:56:54;7.53;;;2.20;;
48777;SDS011;34578;0.000;0.000;2023-02-03T16:01:58;8.45;;;2.17;;
48777;SDS011;34578;0.000;0.000;2023-02-03T16:07:01;7.85;;;2.10;;
48777;SDS011;34578;0.000;0.000;2023-02-03T16:17:31;8.48;;;2.17;;
48777;SDS011;34578;0.000;0.000;2023-02-03T16:22:41;7.03;;;1.50;;
48777;SDS011;34578;0.000;0.000;2023-02-03T16:28:01;13.82;;;3.30;;
48777;SDS011;34578;0.000;0.000;2023-02-03T16:33:31;15.55;;;2.78;;
48777;SDS011;34578;0.000;0.000;2023-02-03T16:38:49;14.88;;;2.88;;
48777;SDS011;34578;0.000;0.000;2023-02-03T16:44:10;11.50;;;2.42;;
48777;SDS011;34578;0.000;0.000;2023-02-03T16:49:29;7.57;;;2.33;;
48777;SDS011;34578;0.000;0.000;2023-02-03T16:54:48;9.00;;;4.32;;
48777;SDS011;34578;0.000;0.000;2023-02-03T16:59:50;9.55;;;2.45;;
48777;SDS011;34578;0.000;0.000;2023-02-03T17:04:50;7.67;;;2.67;;
48777;SDS011;34578;0.000;0.000;2023-02-03T17:09:51;7.23;;;2.10;;
48777;SDS011;34578;0.000;0.000;2023-02-03T17:14:52;12.98;;;2.58;;
48777;SDS011;34578;0.000;0.000;2023-02-03T17:19:53;4.72;;;1.90;;
48777;SDS011;34578;0.000;0.000;2023-02-03T17:24:55;6.80;;;2.40;;
48777;SDS011;34578;0.000;0.000;2023-02-03T17:29:56;6.15;;;1.70;;
48777;SDS011;34578;0.000;0.000;2023-02-03T17:34:56;5.88;;;2.22;;
48777;SDS011;34578;0.000;0.000;2023-02-03T17:39:59;9.50;;;2.00;;
48777;SDS011;34578;0.000;0.000;2023-02-03T17:44:59;7.57;;;2.33;;
48777;SDS011;34578;0.000;0.000;2023-02-03T17:50:00;6.23;;;2.17;;
48777;SDS011;34578;0.000;0.000;2023-02-03T17:55:00;12.40;;;2.90;;
48777;SDS011;34578;0.000;0.000;2023-02-03T18:00:01;14.10;;;2.33;;
48777;SDS011;34578;0.000;0.000;2023-02-03T18:05:01;11.15;;;2.90;;
48777;SDS011;34578;0.000;0.000;2023-02-03T18:10:02;14.60;;;2.58;;
48777;SDS011;34578;0.000;0.000;2023-02-03T18:15:03;9.50;;;2.17;;
48777;SDS011;34578;0.000;0.000;2023-02-03T18:20:03;11.18;;;2.33;;
48777;SDS011;34578;0.000;0.000;2023-02-03T18:25:04;9.27;;;3.42;;
48777;SDS011;34578;0.000;0.000;2023-02-03T18:30:05;12.50;;;2.63;;
48777;SDS011;34578;0.000;0.000;2023-02-03T18:35:08;12.55;;;2.38;;
48777;SDS011;34578;0.000;0.000;2023-02-03T18:40:12;11.45;;;2.33;;
48777;SDS011;34578;0.000;0.000;2023-02-03T18:45:13;8.30;;;2.20;;
48777;SDS011;34578;0.000;0.000;2023-02-03T18:50:14;15.27;;;2.15;;
48777;SDS011;34578;0.000;0.000;2023-02-03T18:55:14;14.48;;;4.25;;
48777;SDS011;34578;0.000;0.000;2023-02-03T19:00:14;6.97;;;2.17;;
48777;SDS011;34578;0.000;0.000;2023-02-03T19:05:15;7.45;;;2.28;;
48777;SDS011;34578;0.000;0.000;2023-02-03T19:10:16;15.37;;;2.63;;
48777;SDS011;34578;0.000;0.000;2023-02-03T19:15:17;7.88;;;2.45;;
48777;SDS011;34578;0.000;0.000;2023-02-03T19:20:18;8.00;;;1.65;;
48777;SDS011;34578;0.000;0.000;2023-02-03T19:25:18;12.82;;;2.50;;
48777;SDS011;34578;0.000;0.000;2023-02-03T19:30:19;5.17;;;1.40;;
48777;SDS011;34578;0.000;0.000;2023-02-03T19:35:20;4.40;;;1.50;;
48777;SDS011;34578;0.000;0.000;2023-02-03T19:40:21;4.27;;;1.40;;
48777;SDS011;34578;0.000;0.000;2023-02-03T19:45:21;4.47;;;1.67;;
48777;SDS011;34578;0.000;0.000;2023-02-03T19:50:22;5.83;;;1.70;;
48777;SDS011;34578;0.000;0.000;2023-02-03T19:55:22;3.47;;;1.47;;
48777;SDS011;34578;0.000;0.000;2023-02-03T20:00:22;6.07;;;2.00;;
48777;SDS011;34578;0.000;0.000;2023-02-03T20:05:23;9.45;;;1.80;;
48777;SDS011;34578;0.000;0.000;2023-02-03T20:10:23;9.43;;;2.23;;
48777;SDS011;34578;0.000;0.000;2023-02-03T20:15:25;4.97;;;1.38;;
48777;SDS011;34578;0.000;0.000;2023-02-03T20:20:26;3.72;;;1.50;;
48777;SDS011;34578;0.000;0.000;2023-02-03T20:25:26;5.23;;;1.50;;
48777;SDS011;34578;0.000;0.000;2023-02-03T20:30:26;9.40;;;2.63;;
48777;SDS011;34578;0.000;0.000;2023-02-03T20:35:27;12.40;;;2.38;;
48777;SDS011;34578;0.000;0.000;2023-02-03T20:40:27;7.63;;;1.67;;
48777;SDS011;34578;0.000;0.000;2023-02-03T20:45:28;13.05;;;2.38;;
48777;SDS011;34578;0.000;0.000;2023-02-03T20:50:28;5.20;;;1.53;;
48777;SDS011;34578;0.000;0.000;2023-02-03T20:55:29;7.53;;;1.70;;
48777;SDS011;34578;0.000;0.000;2023-02-03T21:00:29;5.13;;;1.67;;
48777;SDS011;34578;0.000;0.000;2023-02-03T21:05:31;4.55;;;1.50;;
48777;SDS011;34578;0.000;0.000;2023-02-03T21:10:34;5.53;;;1.40;;
48777;SDS011;34578;0.000;0.000;2023-02-03T21:15:35;7.70;;;1.73;;
48777;SDS011;34578;0.000;0.000;2023-02-03T21:20:36;6.10;;;1.90;;
48777;SDS011;34578;0.000;0.000;2023-02-03T21:25:36;6.35;;;1.23;;
48777;SDS011;34578;0.000;0.000;2023-02-03T21:30:37;11.20;;;2.97;;
48777;SDS011;34578;0.000;0.000;2023-02-03T21:35:37;3.17;;;1.57;;
48777;SDS011;34578;0.000;0.000;2023-02-03T21:40:37;4.50;;;1.23;;
48777;SDS011;34578;0.000;0.000;2023-02-03T21:45:41;3.00;;;1.13;;
48777;SDS011;34578;0.000;0.000;2023-02-03T21:50:42;8.15;;;1.48;;
48777;SDS011;34578;0.000;0.000;2023-02-03T21:55:42;5.57;;;1.43;;
48777;SDS011;34578;0.000;0.000;2023-02-03T22:00:43;2.88;;;1.25;;
48777;SDS011;34578;0.000;0.000;2023-02-03T22:05:47;6.60;;;1.60;;
48777;SDS011;34578;0.000;0.000;2023-02-03T22:10:48;3.05;;;1.23;;
48777;SDS011;34578;0.000;0.000;2023-02-03T22:15:49;2.47;;;1.13;;
48777;SDS011;34578;0.000;0.000;2023-02-03T22:20:49;4.50;;;1.33;;
48777;SDS011;34578;0.000;0.000;2023-02-03T22:25:50;5.38;;;1.63;;
48777;SDS011;34578;0.000;0.000;2023-02-03T22:30:50;4.35;;;1.25;;
48777;SDS011;34578;0.000;0.000;2023-02-03T22:35:52;5.00;;;1.38;;
48777;SDS011;34578;0.000;0.000;2023-02-03T22:40:52;2.67;;;1.40;;
48777;SDS011;34578;0.000;0.000;2023-02-03T22:45:53;3.47;;;1.37;;
48777;SDS011;34578;0.000;0.000;2023-02-03T22:50:54;6.22;;;1.27;;
48777;SDS011;34578;0.000;0.000;2023-02-03T22:55:54;5.07;;;1.30;;
48777;SDS011;34578;0.000;0.000;2023-02-03T23:00:55;4.18;;;1.20;;
48777;SDS011;34578;0.000;0.000;2023-02-03T23:05:55;5.00;;;1.73;;
48777;SDS011;34578;0.000;0.000;2023-02-03T23:10:56;3.37;;;1.10;;
48777;SDS011;34578;0.000;0.000;2023-02-03T23:15:56;6.60;;;1.10;;
48777;SDS011;34578;0.000;0.000;2023-02-03T23:20:57;1.45;;;0.77;;
48777;SDS011;34578;0.000;0.000;2023-02-03T23:25:57;5.00;;;1.50;;
48777;SDS011;34578;0.000;0.000;2023-02-03T23:30:57;4.67;;;1.80;;
48777;SDS011;34578;0.000;0.000;2023-02-03T23:35:58;3.93;;;1.60;;
48777;SDS011;34578;0.000;0.000;2023-02-03T23:40:58;5.63;;;1.33;;
48777;SDS011;34578;0.000;0.000;2023-02-03T23:45:59;5.90;;;1.67;;
48777;SDS011;34578;0.000;0.000;2023-02-03T23:50:59;6.10;;;1.50;;
48777;SDS011;34578;0.000;0.000;2023-02-03T23:55:59;6.30;;;1.30;;
